sensor_id;sensor_type;location;lat;lon;timestamp;pressure;altitude;pressure_sealevel;temperature;humidity
49342;BME280;35210;41.606;-87.602;2023-07-08T00:02:16;99211.06;;;27.48;68.14
49342;BME280;35210;41.606;-87.602;2023-07-08T00:04:47;99211.66;;;27.50;68.43
49342;BME280;35210;41.606;-87.602;2023-07-08T00:07:19;99196.59;;;27.55;66.88
49342;BME280;35210;41.606;-87.602;2023-07-08T00:09:49;99197.63;;;27.54;67.14
49342;BME280;35210;41.606;-87.602;2023-07-08T00:12:17;99202.16;;;27.48;67.94
49342;BME280;35210;41.606;-87.602;2023-07-08T00:14:45;99194.47;;;27.45;68.36
49342;BME280;35210;41.606;-87.602;2023-07-08T00:17:13;99189.88;;;27.45;68.26
49342;BME280;35210;41.606;-87.602;2023-07-08T00:19:42;99173.69;;;27.50;67.49
49342;BME280;35210;41.606;-87.602;2023-07-08T00:22:12;99175.13;;;27.41;67.65
49342;BME280;35210;41.606;-87.602;2023-07-08T00:24:43;99168.88;;;27.41;67.32
49342;BME280;35210;41.606;-87.602;2023-07-08T00:27:12;99161.19;;;27.49;67.25
49342;BME280;35210;41.606;-87.602;2023-07-08T00:29:44;99164.53;;;27.40;69.09
49342;BME280;35210;41.606;-87.602;2023-07-08T00:32:14;99153.66;;;27.28;69.15
49342;BME280;35210;41.606;-87.602;2023-07-08T00:34:43;99152.09;;;27.21;69.11
49342;BME280;35210;41.606;-87.602;2023-07-08T00:37:13;99162.13;;;27.20;69.06
49342;BME280;35210;41.606;-87.602;2023-07-08T00:39:43;99150.81;;;27.23;68.69
49342;BME280;35210;41.606;-87.602;2023-07-08T00:42:16;99146.44;;;27.22;68.66
49342;BME280;35210;41.606;-87.602;2023-07-08T00:44:45;99146.31;;;27.17;68.40
49342;BME280;35210;41.606;-87.602;2023-07-08T00:47:15;99145.81;;;27.08;68.98
49342;BME280;35210;41.606;-87.602;2023-07-08T00:49:47;99148.91;;;27.12;68.50
49342;BME280;35210;41.606;-87.602;2023-07-08T00:52:20;99149.38;;;27.09;68.34
49342;BME280;35210;41.606;-87.602;2023-07-08T00:54:54;99151.94;;;27.04;68.50
49342;BME280;35210;41.606;-87.602;2023-07-08T00:57:26;99148.28;;;26.98;68.44
49342;BME280;35210;41.606;-87.602;2023-07-08T00:59:59;99140.44;;;26.90;68.86
49342;BME280;35210;41.606;-87.602;2023-07-08T01:02:38;99145.25;;;26.88;69.23
49342;BME280;35210;41.606;-87.602;2023-07-08T01:05:11;99140.53;;;26.83;68.93
49342;BME280;35210;41.606;-87.602;2023-07-08T01:07:43;99143.69;;;26.80;68.25
49342;BME280;35210;41.606;-87.602;2023-07-08T01:10:18;99151.94;;;26.74;68.68
49342;BME280;35210;41.606;-87.602;2023-07-08T01:12:50;99144.88;;;26.73;67.77
49342;BME280;35210;41.606;-87.602;2023-07-08T01:15:20;99144.88;;;26.73;66.71
49342;BME280;35210;41.606;-87.602;2023-07-08T01:17:50;99148.50;;;26.67;66.24
49342;BME280;35210;41.606;-87.602;2023-07-08T01:20:19;99153.31;;;26.65;66.57
49342;BME280;35210;41.606;-87.602;2023-07-08T01:22:49;99160.47;;;26.59;66.81
49342;BME280;35210;41.606;-87.602;2023-07-08T01:25:17;99161.97;;;26.55;67.04
49342;BME280;35210;41.606;-87.602;2023-07-08T01:27:48;99160.31;;;26.54;67.44
49342;BME280;35210;41.606;-87.602;2023-07-08T01:30:17;99163.50;;;26.51;67.45
49342;BME280;35210;41.606;-87.602;2023-07-08T01:32:48;99157.69;;;26.47;67.79
49342;BME280;35210;41.606;-87.602;2023-07-08T01:35:17;99155.38;;;26.51;68.20
49342;BME280;35210;41.606;-87.602;2023-07-08T01:37:58;99156.41;;;26.50;68.04
49342;BME280;35210;41.606;-87.602;2023-07-08T01:40:32;99138.91;;;26.52;67.84
49342;BME280;35210;41.606;-87.602;2023-07-08T01:43:02;99144.53;;;26.51;68.23
49342;BME280;35210;41.606;-87.602;2023-07-08T01:45:36;99146.50;;;26.44;68.38
49342;BME280;35210;41.606;-87.602;2023-07-08T01:48:06;99146.97;;;26.41;68.54
49342;BME280;35210;41.606;-87.602;2023-07-08T01:50:37;99161.41;;;26.35;68.60
49342;BME280;35210;41.606;-87.602;2023-07-08T01:53:12;99164.56;;;26.32;68.95
49342;BME280;35210;41.606;-87.602;2023-07-08T01:55:44;99166.59;;;26.36;70.01
49342;BME280;35210;41.606;-87.602;2023-07-08T01:58:12;99169.00;;;26.44;67.89
49342;BME280;35210;41.606;-87.602;2023-07-08T02:00:40;99156.41;;;26.50;67.11
49342;BME280;35210;41.606;-87.602;2023-07-08T02:03:10;99156.41;;;26.50;67.50
49342;BME280;35210;41.606;-87.602;2023-07-08T02:05:39;99157.47;;;26.31;67.86
49342;BME280;35210;41.606;-87.602;2023-07-08T02:08:09;99179.63;;;26.21;68.20
49342;BME280;35210;41.606;-87.602;2023-07-08T02:10:38;99187.59;;;26.16;67.75
49342;BME280;35210;41.606;-87.602;2023-07-08T02:13:06;99186.84;;;26.09;68.30
49342;BME280;35210;41.606;-87.602;2023-07-08T02:15:34;99180.44;;;26.03;68.81
49342;BME280;35210;41.606;-87.602;2023-07-08T02:18:03;99183.59;;;26.00;69.23
49342;BME280;35210;41.606;-87.602;2023-07-08T02:20:31;99187.84;;;25.96;69.65
49342;BME280;35210;41.606;-87.602;2023-07-08T02:22:59;99182.66;;;25.95;69.93
49342;BME280;35210;41.606;-87.602;2023-07-08T02:25:29;99186.78;;;25.97;69.99
49342;BME280;35210;41.606;-87.602;2023-07-08T02:27:57;99184.69;;;25.99;69.89
49342;BME280;35210;41.606;-87.602;2023-07-08T02:30:25;99184.06;;;25.97;70.28
49342;BME280;35210;41.606;-87.602;2023-07-08T02:32:53;99184.53;;;25.94;70.73
49342;BME280;35210;41.606;-87.602;2023-07-08T02:35:25;99185.78;;;25.92;71.16
49342;BME280;35210;41.606;-87.602;2023-07-08T02:37:53;99179.50;;;25.98;72.03
49342;BME280;35210;41.606;-87.602;2023-07-08T02:40:22;99181.38;;;25.97;73.00
49342;BME280;35210;41.606;-87.602;2023-07-08T02:42:52;99173.53;;;25.89;74.39
49342;BME280;35210;41.606;-87.602;2023-07-08T02:45:20;99173.75;;;25.88;74.64
49342;BME280;35210;41.606;-87.602;2023-07-08T02:47:49;99180.44;;;25.85;75.39
49342;BME280;35210;41.606;-87.602;2023-07-08T02:50:17;99186.31;;;25.82;76.31
49342;BME280;35210;41.606;-87.602;2023-07-08T02:52:45;99192.16;;;25.79;76.78
49342;BME280;35210;41.606;-87.602;2023-07-08T02:55:13;99192.16;;;25.79;77.20
49342;BME280;35210;41.606;-87.602;2023-07-08T02:57:41;99200.28;;;25.79;77.05
49342;BME280;35210;41.606;-87.602;2023-07-08T03:00:12;99178.84;;;25.77;77.48
49342;BME280;35210;41.606;-87.602;2023-07-08T03:02:41;99184.88;;;25.79;77.44
49342;BME280;35210;41.606;-87.602;2023-07-08T03:05:09;99194.25;;;25.77;77.56
49342;BME280;35210;41.606;-87.602;2023-07-08T03:07:37;99192.81;;;25.74;77.82
49342;BME280;35210;41.606;-87.602;2023-07-08T03:10:05;99193.44;;;25.76;78.22
49342;BME280;35210;41.606;-87.602;2023-07-08T03:12:33;99183.88;;;25.74;78.82
49342;BME280;35210;41.606;-87.602;2023-07-08T03:15:01;99180.13;;;25.75;78.96
49342;BME280;35210;41.606;-87.602;2023-07-08T03:17:31;99177.41;;;25.75;79.23
49342;BME280;35210;41.606;-87.602;2023-07-08T03:19:59;99171.41;;;25.73;79.38
49342;BME280;35210;41.606;-87.602;2023-07-08T03:22:27;99171.19;;;25.74;79.23
49342;BME280;35210;41.606;-87.602;2023-07-08T03:24:55;99166.00;;;25.73;79.51
49342;BME280;35210;41.606;-87.602;2023-07-08T03:27:24;99163.53;;;25.71;79.32
49342;BME280;35210;41.606;-87.602;2023-07-08T03:29:52;99153.97;;;25.69;79.45
49342;BME280;35210;41.606;-87.602;2023-07-08T03:32:20;99157.72;;;25.68;78.80
49342;BME280;35210;41.606;-87.602;2023-07-08T03:34:50;99146.53;;;25.64;79.13
49342;BME280;35210;41.606;-87.602;2023-07-08T03:37:18;99144.00;;;25.63;79.59
49342;BME280;35210;41.606;-87.602;2023-07-08T03:39:46;99150.47;;;25.62;79.74
49342;BME280;35210;41.606;-87.602;2023-07-08T03:42:14;99139.03;;;25.60;80.20
49342;BME280;35210;41.606;-87.602;2023-07-08T03:44:42;99136.56;;;25.58;80.90
49342;BME280;35210;41.606;-87.602;2023-07-08T03:47:10;99134.09;;;25.57;80.69
49342;BME280;35210;41.606;-87.602;2023-07-08T03:49:38;99125.38;;;25.54;80.84
49342;BME280;35210;41.606;-87.602;2023-07-08T03:52:14;99108.75;;;25.51;80.72
49342;BME280;35210;41.606;-87.602;2023-07-08T03:54:44;99118.75;;;25.50;80.63
49342;BME280;35210;41.606;-87.602;2023-07-08T03:57:13;99130.63;;;25.49;81.19
49342;BME280;35210;41.606;-87.602;2023-07-08T03:59:41;99128.34;;;25.46;81.50
49342;BME280;35210;41.606;-87.602;2023-07-08T04:02:10;99140.22;;;25.45;81.63
49342;BME280;35210;41.606;-87.602;2023-07-08T04:04:39;99142.31;;;25.43;82.06
49342;BME280;35210;41.606;-87.602;2023-07-08T04:07:09;99136.28;;;25.41;81.96
49342;BME280;35210;41.606;-87.602;2023-07-08T04:09:39;99118.41;;;25.40;81.98
49342;BME280;35210;41.606;-87.602;2023-07-08T04:12:11;99128.63;;;25.38;82.19
49342;BME280;35210;41.606;-87.602;2023-07-08T04:14:39;99122.63;;;25.36;82.26
49342;BME280;35210;41.606;-87.602;2023-07-08T04:17:09;99126.38;;;25.35;82.37
49342;BME280;35210;41.606;-87.602;2023-07-08T04:19:38;99140.31;;;25.32;82.88
49342;BME280;35210;41.606;-87.602;2023-07-08T04:22:11;99144.69;;;25.33;83.05
49342;BME280;35210;41.606;-87.602;2023-07-08T04:24:39;99148.03;;;25.29;83.53
49342;BME280;35210;41.606;-87.602;2023-07-08T04:27:12;99152.63;;;25.28;83.51
49342;BME280;35210;41.606;-87.602;2023-07-08T04:29:41;99148.03;;;25.29;83.53
49342;BME280;35210;41.606;-87.602;2023-07-08T04:32:09;99156.59;;;25.26;83.67
49342;BME280;35210;41.606;-87.602;2023-07-08T04:34:37;99156.84;;;25.24;84.32
49342;BME280;35210;41.606;-87.602;2023-07-08T04:37:05;99160.59;;;25.23;84.64
49342;BME280;35210;41.606;-87.602;2023-07-08T04:39:35;99165.16;;;25.23;84.98
49342;BME280;35210;41.606;-87.602;2023-07-08T04:42:04;99167.25;;;25.20;85.17
49342;BME280;35210;41.606;-87.602;2023-07-08T04:44:32;99167.47;;;25.19;85.26
49342;BME280;35210;41.606;-87.602;2023-07-08T04:47:00;99170.19;;;25.19;86.07
49342;BME280;35210;41.606;-87.602;2023-07-08T04:49:28;99162.69;;;25.21;85.86
49342;BME280;35210;41.606;-87.602;2023-07-08T04:51:59;99157.88;;;25.23;85.37
49342;BME280;35210;41.606;-87.602;2023-07-08T04:54:28;99156.06;;;25.17;85.52
49342;BME280;35210;41.606;-87.602;2023-07-08T04:56:57;99152.13;;;25.13;85.88
49342;BME280;35210;41.606;-87.602;2023-07-08T04:59:26;99145.28;;;25.10;85.74
49342;BME280;35210;41.606;-87.602;2023-07-08T05:01:54;99135.75;;;25.08;85.82
49342;BME280;35210;41.606;-87.602;2023-07-08T05:04:22;99147.81;;;25.05;86.20
49342;BME280;35210;41.606;-87.602;2023-07-08T05:06:50;99148.25;;;25.02;86.55
49342;BME280;35210;41.606;-87.602;2023-07-08T05:09:19;99149.53;;;25.00;86.48
49342;BME280;35210;41.606;-87.602;2023-07-08T05:11:48;99147.88;;;24.99;86.72
49342;BME280;35210;41.606;-87.602;2023-07-08T05:14:18;99151.59;;;24.98;86.77
49342;BME280;35210;41.606;-87.602;2023-07-08T05:16:46;99148.91;;;24.98;86.92
49342;BME280;35210;41.606;-87.602;2023-07-08T05:19:14;99138.09;;;24.98;86.83
49342;BME280;35210;41.606;-87.602;2023-07-08T05:21:42;99144.56;;;24.97;86.82
49342;BME280;35210;41.606;-87.602;2023-07-08T05:24:11;99137.47;;;24.96;87.12
49342;BME280;35210;41.606;-87.602;2023-07-08T05:26:39;99132.06;;;24.96;87.28
49342;BME280;35210;41.606;-87.602;2023-07-08T05:29:07;99130.63;;;25.00;87.22
49342;BME280;35210;41.606;-87.602;2023-07-08T05:31:37;99125.00;;;24.95;87.73
49342;BME280;35210;41.606;-87.602;2023-07-08T05:34:06;99116.50;;;24.91;88.23
49342;BME280;35210;41.606;-87.602;2023-07-08T05:36:34;99115.06;;;24.88;88.25
49342;BME280;35210;41.606;-87.602;2023-07-08T05:39:03;99105.31;;;24.87;88.04
49342;BME280;35210;41.606;-87.602;2023-07-08T05:41:31;99106.34;;;24.86;88.00
49342;BME280;35210;41.606;-87.602;2023-07-08T05:43:59;99104.25;;;24.88;87.88
49342;BME280;35210;41.606;-87.602;2023-07-08T05:46:27;99109.66;;;24.88;87.98
49342;BME280;35210;41.606;-87.602;2023-07-08T05:48:57;99111.97;;;24.85;88.29
49342;BME280;35210;41.606;-87.602;2023-07-08T05:51:25;99116.78;;;24.83;88.49
49342;BME280;35210;41.606;-87.602;2023-07-08T05:53:53;99133.59;;;24.85;88.84
49342;BME280;35210;41.606;-87.602;2023-07-08T05:56:22;99145.38;;;24.90;90.50
49342;BME280;35210;41.606;-87.602;2023-07-08T05:58:50;99146.22;;;24.98;91.65
49342;BME280;35210;41.606;-87.602;2023-07-08T06:01:18;99146.59;;;24.95;92.22
49342;BME280;35210;41.606;-87.602;2023-07-08T06:03:46;99156.66;;;24.81;93.10
49342;BME280;35210;41.606;-87.602;2023-07-08T06:06:17;99145.28;;;24.72;94.10
49342;BME280;35210;41.606;-87.602;2023-07-08T06:08:46;99144.06;;;24.68;94.34
49342;BME280;35210;41.606;-87.602;2023-07-08T06:11:16;99143.00;;;24.69;94.16
49342;BME280;35210;41.606;-87.602;2023-07-08T06:13:45;99137.44;;;24.64;94.83
49342;BME280;35210;41.606;-87.602;2023-07-08T06:16:13;99133.94;;;24.57;94.83
49342;BME280;35210;41.606;-87.602;2023-07-08T06:18:42;99138.56;;;24.50;95.18
49342;BME280;35210;41.606;-87.602;2023-07-08T06:21:11;99140.88;;;24.46;95.36
49342;BME280;35210;41.606;-87.602;2023-07-08T06:23:41;99142.31;;;24.49;95.61
49342;BME280;35210;41.606;-87.602;2023-07-08T06:26:09;99153.97;;;24.43;95.99
49342;BME280;35210;41.606;-87.602;2023-07-08T06:28:37;99150.03;;;24.39;96.08
49342;BME280;35210;41.606;-87.602;2023-07-08T06:31:06;99145.28;;;24.34;96.26
49342;BME280;35210;41.606;-87.602;2023-07-08T06:33:34;99156.28;;;24.33;96.55
49342;BME280;35210;41.606;-87.602;2023-07-08T06:36:02;99161.06;;;24.31;96.76
49342;BME280;35210;41.606;-87.602;2023-07-08T06:38:33;99171.88;;;24.31;97.17
49342;BME280;35210;41.606;-87.602;2023-07-08T06:41:02;99166.47;;;24.31;97.14
49342;BME280;35210;41.606;-87.602;2023-07-08T06:43:30;99150.28;;;24.31;97.21
49342;BME280;35210;41.606;-87.602;2023-07-08T06:45:58;99148.22;;;24.26;97.53
49342;BME280;35210;41.606;-87.602;2023-07-08T06:48:26;99155.88;;;24.22;97.78
49342;BME280;35210;41.606;-87.602;2023-07-08T06:50:55;99154.66;;;24.18;97.71
49342;BME280;35210;41.606;-87.602;2023-07-08T06:53:23;99163.78;;;24.17;98.07
49342;BME280;35210;41.606;-87.602;2023-07-08T06:55:51;99169.19;;;24.17;98.38
49342;BME280;35210;41.606;-87.602;2023-07-08T06:58:21;99165.66;;;24.17;98.57
49342;BME280;35210;41.606;-87.602;2023-07-08T07:00:49;99161.06;;;24.17;99.11
49342;BME280;35210;41.606;-87.602;2023-07-08T07:03:17;99159.03;;;24.13;99.22
49342;BME280;35210;41.606;-87.602;2023-07-08T07:05:45;99151.97;;;24.12;99.40
49342;BME280;35210;41.606;-87.602;2023-07-08T07:08:13;99147.59;;;24.11;99.10
49342;BME280;35210;41.606;-87.602;2023-07-08T07:10:41;99137.47;;;24.06;99.49
49342;BME280;35210;41.606;-87.602;2023-07-08T07:13:10;99129.16;;;24.01;99.53
49342;BME280;35210;41.606;-87.602;2023-07-08T07:15:39;99129.16;;;24.01;99.78
49342;BME280;35210;41.606;-87.602;2023-07-08T07:18:08;99128.56;;;23.99;100.00
49342;BME280;35210;41.606;-87.602;2023-07-08T07:20:37;99118.19;;;23.96;100.00
49342;BME280;35210;41.606;-87.602;2023-07-08T07:23:05;99117.34;;;23.96;100.00
49342;BME280;35210;41.606;-87.602;2023-07-08T07:25:34;99104.72;;;23.96;100.00
49342;BME280;35210;41.606;-87.602;2023-07-08T07:28:02;99103.66;;;23.97;100.00
49342;BME280;35210;41.606;-87.602;2023-07-08T07:30:31;99105.31;;;23.98;100.00
49342;BME280;35210;41.606;-87.602;2023-07-08T07:33:01;99090.59;;;23.94;100.00
49342;BME280;35210;41.606;-87.602;2023-07-08T07:35:29;99089.16;;;23.91;100.00
49342;BME280;35210;41.606;-87.602;2023-07-08T07:37:57;99095.59;;;23.90;100.00
49342;BME280;35210;41.606;-87.602;2023-07-08T07:40:25;99099.34;;;23.89;100.00
49342;BME280;35210;41.606;-87.602;2023-07-08T07:42:53;99100.16;;;23.90;100.00
49342;BME280;35210;41.606;-87.602;2023-07-08T07:45:21;99111.34;;;23.93;100.00
49342;BME280;35210;41.606;-87.602;2023-07-08T07:47:49;99132.09;;;23.93;100.00
49342;BME280;35210;41.606;-87.602;2023-07-08T07:50:19;99141.22;;;23.92;100.00
49342;BME280;35210;41.606;-87.602;2023-07-08T07:52:47;99149.53;;;23.90;100.00
49342;BME280;35210;41.606;-87.602;2023-07-08T07:55:15;99147.03;;;23.89;100.00
49342;BME280;35210;41.606;-87.602;2023-07-08T07:57:43;99161.16;;;23.78;100.00
49342;BME280;35210;41.606;-87.602;2023-07-08T08:00:13;99165.72;;;23.77;100.00
49342;BME280;35210;41.606;-87.602;2023-07-08T08:02:41;99166.56;;;23.78;100.00
49342;BME280;35210;41.606;-87.602;2023-07-08T08:05:09;99156.00;;;23.76;100.00
49342;BME280;35210;41.606;-87.602;2023-07-08T08:07:41;99157.88;;;23.76;100.00
49342;BME280;35210;41.606;-87.602;2023-07-08T08:10:09;99155.81;;;23.71;100.00
49342;BME280;35210;41.606;-87.602;2023-07-08T08:12:37;99180.91;;;23.72;100.00
49342;BME280;35210;41.606;-87.602;2023-07-08T08:15:06;99185.25;;;23.73;100.00
49342;BME280;35210;41.606;-87.602;2023-07-08T08:17:35;99180.91;;;23.72;100.00
49342;BME280;35210;41.606;-87.602;2023-07-08T08:20:03;99171.16;;;23.71;100.00
49342;BME280;35210;41.606;-87.602;2023-07-08T08:22:31;99162.00;;;23.52;100.00
49342;BME280;35210;41.606;-87.602;2023-07-08T08:25:01;99141.69;;;23.43;100.00
49342;BME280;35210;41.606;-87.602;2023-07-08T08:27:30;99145.63;;;23.34;100.00
49342;BME280;35210;41.606;-87.602;2023-07-08T08:29:58;99171.13;;;23.31;100.00
49342;BME280;35210;41.606;-87.602;2023-07-08T08:32:26;99191.84;;;23.37;100.00
49342;BME280;35210;41.606;-87.602;2023-07-08T08:34:54;99165.72;;;23.31;100.00
49342;BME280;35210;41.606;-87.602;2023-07-08T08:37:22;99160.34;;;23.31;100.00
49342;BME280;35210;41.606;-87.602;2023-07-08T08:39:50;99159.91;;;23.21;100.00
49342;BME280;35210;41.606;-87.602;2023-07-08T08:42:26;99163.22;;;23.10;99.28
49342;BME280;35210;41.606;-87.602;2023-07-08T08:44:57;99168.19;;;23.06;98.74
49342;BME280;35210;41.606;-87.602;2023-07-08T08:47:34;99172.97;;;22.98;99.49
49342;BME280;35210;41.606;-87.602;2023-07-08T08:50:08;99160.72;;;22.95;100.00
49342;BME280;35210;41.606;-87.602;2023-07-08T08:52:42;99152.03;;;22.93;100.00
49342;BME280;35210;41.606;-87.602;2023-07-08T08:55:12;99138.97;;;22.90;100.00
49342;BME280;35210;41.606;-87.602;2023-07-08T08:57:46;99140.44;;;22.92;100.00
49342;BME280;35210;41.606;-87.602;2023-07-08T09:00:21;99137.13;;;22.90;100.00
49342;BME280;35210;41.606;-87.602;2023-07-08T09:02:58;99131.31;;;22.93;99.61
49342;BME280;35210;41.606;-87.602;2023-07-08T09:05:29;99106.47;;;22.85;98.77
49342;BME280;35210;41.606;-87.602;2023-07-08T09:08:04;99088.22;;;22.80;98.11
49342;BME280;35210;41.606;-87.602;2023-07-08T09:10:43;99095.22;;;22.68;96.47
49342;BME280;35210;41.606;-87.602;2023-07-08T09:13:18;99088.09;;;22.27;98.55
49342;BME280;35210;41.606;-87.602;2023-07-08T09:15:49;99069.44;;;22.19;100.00
49342;BME280;35210;41.606;-87.602;2023-07-08T09:18:27;99048.31;;;22.16;100.00
49342;BME280;35210;41.606;-87.602;2023-07-08T09:20:59;99032.59;;;22.13;100.00
49342;BME280;35210;41.606;-87.602;2023-07-08T09:23:32;99022.91;;;21.78;100.00
49342;BME280;35210;41.606;-87.602;2023-07-08T09:26:09;99018.66;;;21.55;100.00
49342;BME280;35210;41.606;-87.602;2023-07-08T09:28:44;99044.75;;;21.68;100.00
49342;BME280;35210;41.606;-87.602;2023-07-08T09:31:21;99086.13;;;21.74;100.00
49342;BME280;35210;41.606;-87.602;2023-07-08T09:33:51;99103.72;;;21.76;100.00
49342;BME280;35210;41.606;-87.602;2023-07-08T09:36:23;99108.94;;;21.84;100.00
49342;BME280;35210;41.606;-87.602;2023-07-08T09:38:53;99119.50;;;21.86;100.00
49342;BME280;35210;41.606;-87.602;2023-07-08T09:41:32;99132.78;;;21.94;100.00
49342;BME280;35210;41.606;-87.602;2023-07-08T09:46:59;99152.72;;;22.06;100.00
49342;BME280;35210;41.606;-87.602;2023-07-08T09:49:30;99163.72;;;22.11;100.00
49342;BME280;35210;41.606;-87.602;2023-07-08T09:51:59;99173.44;;;22.12;100.00
49342;BME280;35210;41.606;-87.602;2023-07-08T09:54:27;99175.16;;;22.20;100.00
49342;BME280;35210;41.606;-87.602;2023-07-08T09:57:02;99175.34;;;22.18;100.00
49342;BME280;35210;41.606;-87.602;2023-07-08T09:59:45;99171.81;;;22.18;100.00
49342;BME280;35210;41.606;-87.602;2023-07-08T10:02:28;99173.88;;;22.16;100.00
49342;BME280;35210;41.606;-87.602;2023-07-08T10:04:58;99161.66;;;22.13;100.00
49342;BME280;35210;41.606;-87.602;2023-07-08T10:07:30;99162.69;;;22.12;100.00
49342;BME280;35210;41.606;-87.602;2023-07-08T10:10:01;99157.94;;;22.14;100.00
49342;BME280;35210;41.606;-87.602;2023-07-08T10:12:32;99148.03;;;22.15;100.00
49342;BME280;35210;41.606;-87.602;2023-07-08T10:15:05;99116.97;;;22.12;100.00
49342;BME280;35210;41.606;-87.602;2023-07-08T10:17:41;99089.22;;;21.71;100.00
49342;BME280;35210;41.606;-87.602;2023-07-08T10:20:12;99070.81;;;21.33;100.00
49342;BME280;35210;41.606;-87.602;2023-07-08T10:22:47;99037.50;;;21.27;100.00
49342;BME280;35210;41.606;-87.602;2023-07-08T10:25:28;99002.06;;;21.39;100.00
49342;BME280;35210;41.606;-87.602;2023-07-08T10:28:04;99020.94;;;21.52;100.00
49342;BME280;35210;41.606;-87.602;2023-07-08T10:30:53;99058.53;;;21.52;100.00
49342;BME280;35210;41.606;-87.602;2023-07-08T10:33:42;99027.38;;;21.64;100.00
49342;BME280;35210;41.606;-87.602;2023-07-08T10:36:21;99019.81;;;21.81;100.00
49342;BME280;35210;41.606;-87.602;2023-07-08T10:39:06;99055.31;;;21.70;100.00
49342;BME280;35210;41.606;-87.602;2023-07-08T10:41:49;99068.75;;;21.70;100.00
49342;BME280;35210;41.606;-87.602;2023-07-08T10:44:25;99047.22;;;21.63;100.00
49342;BME280;35210;41.606;-87.602;2023-07-08T10:47:03;99043.09;;;21.67;100.00
49342;BME280;35210;41.606;-87.602;2023-07-08T10:49:55;99048.50;;;21.74;100.00
49342;BME280;35210;41.606;-87.602;2023-07-08T10:52:42;99059.47;;;21.72;100.00
49342;BME280;35210;41.606;-87.602;2023-07-08T10:55:23;99067.13;;;21.75;100.00
49342;BME280;35210;41.606;-87.602;2023-07-08T11:00:51;99067.97;;;21.76;100.00
49342;BME280;35210;41.606;-87.602;2023-07-08T11:03:46;99072.09;;;21.78;100.00
49342;BME280;35210;41.606;-87.602;2023-07-08T11:06:26;99059.72;;;21.84;100.00
49342;BME280;35210;41.606;-87.602;2023-07-08T11:08:57;99062.41;;;21.84;100.00
49342;BME280;35210;41.606;-87.602;2023-07-08T11:11:33;99074.19;;;21.83;100.00
49342;BME280;35210;41.606;-87.602;2023-07-08T11:14:09;99083.72;;;21.85;100.00
49342;BME280;35210;41.606;-87.602;2023-07-08T11:16:43;99088.31;;;21.91;100.00
49342;BME280;35210;41.606;-87.602;2023-07-08T11:19:17;99094.50;;;21.92;100.00
49342;BME280;35210;41.606;-87.602;2023-07-08T11:21:52;99094.28;;;21.87;100.00
49342;BME280;35210;41.606;-87.602;2023-07-08T11:24:25;99107.28;;;21.83;100.00
49342;BME280;35210;41.606;-87.602;2023-07-08T11:26:58;99110.78;;;21.84;100.00
49342;BME280;35210;41.606;-87.602;2023-07-08T11:29:36;99115.16;;;21.85;100.00
49342;BME280;35210;41.606;-87.602;2023-07-08T11:32:08;99115.16;;;21.85;100.00
49342;BME280;35210;41.606;-87.602;2023-07-08T11:34:41;99110.16;;;21.82;100.00
49342;BME280;35210;41.606;-87.602;2023-07-08T11:37:13;99115.53;;;21.82;100.00
49342;BME280;35210;41.606;-87.602;2023-07-08T11:39:43;99115.34;;;21.83;100.00
49342;BME280;35210;41.606;-87.602;2023-07-08T11:42:18;99118.84;;;21.84;100.00
49342;BME280;35210;41.606;-87.602;2023-07-08T11:44:50;99118.03;;;21.83;100.00
49342;BME280;35210;41.606;-87.602;2023-07-08T11:47:24;99109.38;;;21.88;100.00
49342;BME280;35210;41.606;-87.602;2023-07-08T11:49:54;99108.50;;;21.81;100.00
49342;BME280;35210;41.606;-87.602;2023-07-08T11:52:25;99114.91;;;21.80;100.00
49342;BME280;35210;41.606;-87.602;2023-07-08T11:54:59;99114.72;;;21.81;100.00
49342;BME280;35210;41.606;-87.602;2023-07-08T11:57:38;99122.78;;;21.81;100.00
49342;BME280;35210;41.606;-87.602;2023-07-08T12:00:18;99120.28;;;21.80;100.00
49342;BME280;35210;41.606;-87.602;2023-07-08T12:02:52;99116.31;;;21.76;100.00
49342;BME280;35210;41.606;-87.602;2023-07-08T12:05:30;99120.03;;;21.75;100.00
49342;BME280;35210;41.606;-87.602;2023-07-08T12:08:02;99119.00;;;21.76;100.00
49342;BME280;35210;41.606;-87.602;2023-07-08T12:10:37;99119.59;;;21.71;100.00
49342;BME280;35210;41.606;-87.602;2023-07-08T12:13:13;99113.78;;;21.68;100.00
49342;BME280;35210;41.606;-87.602;2023-07-08T12:15:42;99106.16;;;21.71;100.00
49342;BME280;35210;41.606;-87.602;2023-07-08T12:18:13;99116.72;;;21.73;100.00
49342;BME280;35210;41.606;-87.602;2023-07-08T12:20:45;99113.66;;;21.76;100.00
49342;BME280;35210;41.606;-87.602;2023-07-08T12:23:18;99106.84;;;21.80;100.00
49342;BME280;35210;41.606;-87.602;2023-07-08T12:25:47;99115.53;;;21.82;100.00
49342;BME280;35210;41.606;-87.602;2023-07-08T12:28:15;99116.81;;;21.86;100.00
49342;BME280;35210;41.606;-87.602;2023-07-08T12:30:45;99118.06;;;21.90;100.00
49342;BME280;35210;41.606;-87.602;2023-07-08T12:33:15;99121.38;;;21.92;100.00
49342;BME280;35210;41.606;-87.602;2023-07-08T12:35:46;99118.94;;;21.97;100.00
49342;BME280;35210;41.606;-87.602;2023-07-08T12:38:19;99124.94;;;21.99;100.00
49342;BME280;35210;41.606;-87.602;2023-07-08T12:40:50;99121.44;;;21.98;100.00
49342;BME280;35210;41.606;-87.602;2023-07-08T12:43:18;99115.03;;;22.00;100.00
49342;BME280;35210;41.606;-87.602;2023-07-08T12:45:46;99113.81;;;22.02;100.00
49342;BME280;35210;41.606;-87.602;2023-07-08T12:48:14;99116.50;;;22.02;100.00
49342;BME280;35210;41.606;-87.602;2023-07-08T12:50:42;99112.78;;;22.03;100.00
49342;BME280;35210;41.606;-87.602;2023-07-08T12:53:11;99106.38;;;22.04;100.00
49342;BME280;35210;41.606;-87.602;2023-07-08T12:55:43;99107.03;;;22.06;100.00
49342;BME280;35210;41.606;-87.602;2023-07-08T12:58:14;99104.97;;;22.08;100.00
49342;BME280;35210;41.606;-87.602;2023-07-08T13:00:47;99100.22;;;22.10;100.00